Santa Maria, Texas
Current Conditions -  °F | °C
As of 9:15 AM on Wednesday 26 Nov 2014 (Local Time) from KT65 Reporting Station
Clear Clear  
Wind Chill: 58°   Ceiling: Unl
Heat Index: 58°   Visibility: 7mi
Dew Point: 45°   Wind: 8mph
Humidity: 61%   Direction: 200°SSW
Pressure: 30.33"   Gusts: NA
Location:  26.08°N, 97.85°W
Report Text: KT65 261515Z AUTO 20007KT 7SM CLR 15/07 A3033 RMK AO2 T01470072
Loading
Personal Weather Stations






























Interactive Weather Map New forecast layout! Learn more

10-Day Weather Forecast

Advertisements
Track Severe Weather on mobile